Latest Weather Observations for Albury

IDV60801

Issued at 10:12 pm EDT Monday 19 November 2018 (issued every 10 minutes, with the page automatically refreshed every 10 minutes)

About weather observations | Map of weather stations | Latest weather observations for VIC | Other Formats
Station Details ID: 072160 Name: ALBURY AIRPORT AWS Lat: -36.07 Lon: 146.95 Height: 163.5 m
Data from the previous 72 hours. | See also: Recent months at Albury
Date/Time
EDT
Temp
°C
App
Temp
°C
Dew
Point
°C
Rel
Hum
%
Delta-T
°C
Wind Press
QNH
hPa
Press
MSL
hPa
Rain since
9am
mm
Dir  Spd
km/h
Gust
km/h
Spd
kts
Gust
kts
19/10:00pm 19.6 18.4 9.5 52 5.4 SSE 6 9 3 5 1013.5 1013.1 0.0
19/09:30pm 20.0 20.1 10.1 53 5.4 CALM 0 0 0 0 1013.2 1012.8 0.0
19/09:00pm 20.6 19.4 7.9 44 6.6 ENE 4 6 2 3 1013.1 1012.7 0.0
19/08:30pm 23.0 21.1 7.5 37 8.1 ESE 7 11 4 6 1013.1 1012.7 0.0
19/08:00pm 24.4 21.7 5.7 30 9.6 ESE 9 9 5 5 1012.9 1012.5 0.0
19/07:30pm 25.4 22.7 5.6 28 10.2 SE 9 13 5 7 1012.8 1012.4 0.0
19/07:00pm 26.1 23.3 5.1 26 10.8 SE 9 13 5 7 1012.9 1012.5 0.0
19/06:30pm 27.4 23.8 5.1 24 11.5 E 13 19 7 10 1012.8 1012.4 0.0
19/06:00pm 27.7 24.3 5.9 25 11.4 ESE 13 20 7 11 1012.8 1012.4 0.0
19/05:30pm 28.1 24.6 5.6 24 11.8 NE 13 24 7 13 1013.0 1012.6 0.0
19/05:00pm 28.7 24.7 6.7 25 11.8 E 17 24 9 13 1013.2 1012.8 0.0
19/04:30pm 27.7 24.3 5.9 25 11.4 ENE 13 20 7 11 1013.6 1013.2 0.0
19/04:00pm 28.1 24.9 6.8 26 11.4 NE 13 24 7 13 1013.9 1013.5 0.0
19/03:30pm 27.9 24.2 6.1 25 11.5 ESE 15 24 8 13 1014.3 1013.9 0.0
19/03:00pm 27.7 24.3 7.5 28 10.9 NE 15 22 8 12 1014.9 1014.5 0.0
19/02:30pm 27.4 23.8 6.8 27 11.0 ENE 15 28 8 15 1015.3 1014.9 0.0
19/02:00pm 26.6 23.3 6.6 28 10.6 ENE 13 28 7 15 1015.9 1015.4 0.0
19/01:30pm 26.6 22.6 6.6 28 10.6 NE 17 30 9 16 1016.4 1015.9 0.0
19/01:00pm 26.1 22.1 8.1 32 9.7 NE 19 30 10 16 1016.9 1016.4 0.0
19/12:30pm 25.5 21.5 6.7 30 9.9 N 17 28 9 15 1017.5 1017.0 0.0
19/12:00pm 25.3 21.6 7.9 33 9.3 NE 17 26 9 14 1017.9 1017.5 0.0
19/11:30am 23.7 19.8 6.9 34 8.8 NE 17 24 9 13 1018.5 1018.1 0.0
19/11:00am 23.6 19.7 8.8 39 8.0 NNE 19 26 10 14 1018.8 1018.4 0.0
19/10:30am 23.2 19.5 8.1 38 8.0 NE 17 24 9 13 1019.1 1018.7 0.0
19/10:00am 22.3 18.7 8.4 41 7.4 NE 17 26 9 14 1019.5 1019.1 0.0
19/09:30am 20.8 16.7 7.8 43 6.8 NE 19 26 10 14 1019.8 1019.4 0.0
19/09:00am 20.5 15.8 7.8 44 6.6 ENE 22 32 12 17 1019.9 1019.5 0.0
19/08:30am 19.0 15.2 7.4 47 5.9 NE 17 24 9 13 1019.9 1019.5 0.0
19/08:00am 17.8 16.4 9.4 58 4.4 SE 7 11 4 6 1019.8 1019.4 0.0
19/07:30am 15.9 14.1 9.6 66 3.3 SE 9 13 5 7 1019.8 1019.4 0.0
19/07:00am 15.5 15.3 9.2 66 3.3 CALM 0 0 0 0 1019.8 1019.4 0.0
19/06:30am 12.8 11.8 8.9 77 2.0 SSE 4 9 2 5 1019.4 1019.0 0.0
19/06:00am 11.7 10.1 8.7 82 1.5 W 7 11 4 6 1019.1 1018.7 0.0
19/05:30am 12.1 10.5 8.6 79 1.8 SE 7 11 4 6 1018.5 1018.1 0.0
19/05:00am 12.2 11.9 8.7 79 1.8 CALM 0 2 0 1 1018.0 1017.6 0.0
19/04:30am 13.2 12.6 9.1 76 2.1 SE 2 6 1 3 1017.8 1017.4 0.0
19/04:00am 13.0 12.9 9.6 80 1.7 CALM 0 0 0 0 1017.8 1017.4 0.0
19/03:30am 13.0 11.5 8.5 74 2.3 SE 6 7 3 4 1017.9 1017.5 0.0
19/03:00am 13.2 11.9 9.1 76 2.1 ESE 6 7 3 4 1018.0 1017.6 0.0
19/02:30am 14.0 13.0 9.0 72 2.6 NE 4 7 2 4 1018.0 1017.6 0.0
19/02:00am 14.2 13.7 7.9 66 3.1 CALM 0 0 0 0 1018.2 1017.8 0.0
19/01:30am 15.0 13.4 8.7 66 3.2 S 7 7 4 4 1018.3 1017.9 0.0
19/01:00am 15.7 14.9 8.2 61 3.8 SSW 2 7 1 4 1018.4 1018.0 0.0
19/12:30am 15.7 15.2 7.7 59 4.0 CALM 0 0 0 0 1018.4 1018.0 0.0
19/12:00am 16.1 14.4 8.3 60 4.0 SSE 7 9 4 5 1018.4 1018.0 0.0
 
Date/Time
EDT
Temp
°C
App
Temp
°C
Dew
Point
°C
Rel
Hum
%
Delta-T
°C
Wind Press
QNH
hPa
Press
MSL
hPa
Rain since
9am
mm
Dir  Spd
km/h
Gust
km/h
Spd
kts
Gust
kts
18/11:30pm 15.8 15.0 8.3 61 3.8 SE 2 7 1 4 1018.4 1018.0 0.0
18/11:00pm 17.0 16.4 7.4 53 4.8 CALM 0 0 0 0 1018.1 1017.7 0.0
18/10:30pm 17.5 16.2 9.2 58 4.4 ENE 6 9 3 5 1017.9 1017.5 0.0
18/10:00pm 18.2 17.7 7.9 51 5.3 CALM 0 0 0 0 1017.9 1017.5 0.0
18/09:30pm 19.6 18.8 6.4 42 6.7 CALM 0 0 0 0 1017.7 1017.2 0.0
18/09:00pm 21.2 20.4 6.7 39 7.4 CALM 0 0 0 0 1017.5 1017.0 0.0
18/08:30pm 23.6 21.0 4.0 28 9.7 N 7 9 4 5 1017.5 1017.0 0.0
18/08:00pm 23.9 21.4 4.8 29 9.6 N 7 9 4 5 1017.4 1016.9 0.0
18/07:30pm 25.0 22.3 3.6 25 10.6 NNE 7 13 4 7 1017.3 1016.8 0.0
18/07:00pm 25.8 22.7 3.7 24 11.0 NE 9 15 5 8 1017.1 1016.6 0.0
18/06:30pm 26.7 24.7 4.5 24 11.3 N 4 11 2 6 1017.1 1016.6 0.0
18/06:00pm 26.4 22.3 4.2 24 11.2 NE 15 20 8 11 1017.1 1016.6 0.0
18/05:30pm 26.8 23.8 4.0 23 11.5 NNW 9 15 5 8 1017.3 1016.8 0.0
18/05:00pm 26.7 24.6 3.9 23 11.5 E 4 7 2 4 1017.3 1016.8 0.0
18/04:30pm 26.9 23.2 4.6 24 11.4 N 13 19 7 10 1017.5 1017.0 0.0
18/04:00pm 26.4 22.9 5.4 26 10.8 SE 13 24 7 13 1017.8 1017.4 0.0
18/03:30pm 26.1 22.3 4.0 24 11.1 NE 13 20 7 11 1018.3 1017.9 0.0
18/03:00pm 25.4 21.2 4.0 25 10.7 ESE 15 24 8 13 1018.9 1018.5 0.0
18/02:30pm 25.7 22.9 5.3 27 10.5 NNE 9 17 5 9 1019.4 1019.0 0.0
18/02:00pm 24.6 21.3 4.4 27 10.1 SW 11 20 6 11 1019.8 1019.4 0.0
18/01:30pm 25.3 22.1 5.0 27 10.3 SSE 11 17 6 9 1020.3 1019.9 0.0
18/01:00pm 24.9 21.6 6.6 31 9.5 ESE 13 17 7 9 1020.6 1020.2 0.0
18/12:30pm 23.9 21.1 5.3 30 9.4 ESE 9 15 5 8 1021.0 1020.6 0.0
18/12:00pm 23.1 21.3 5.5 32 8.9 NE 4 9 2 5 1021.4 1021.0 0.0
18/11:30am 22.9 19.9 6.2 34 8.6 NE 11 20 6 11 1021.9 1021.5 0.0
18/11:00am 22.2 19.7 6.4 36 8.1 NE 9 17 5 9 1022.3 1021.8 0.0
18/10:30am 22.0 19.1 6.3 36 8.0 NE 11 19 6 10 1022.4 1021.9 0.0
18/10:00am 20.8 18.1 5.6 37 7.6 E 9 17 5 9 1022.6 1022.1 0.0
18/09:30am 20.1 17.9 7.8 45 6.4 SE 9 19 5 10 1022.6 1022.1 0.0
18/09:00am 19.2 16.5 7.3 46 6.1 SSE 11 17 6 9 1022.7 1022.2 0.0
18/08:30am 18.6 15.5 7.4 48 5.7 SE 13 19 7 10 1022.6 1022.1 0.0
18/08:00am 17.5 14.6 8.1 54 4.8 SE 13 19 7 10 1022.5 1022.0 0.0
18/07:30am 17.4 15.9 9.3 59 4.3 ESE 7 9 4 5 1022.3 1021.8 0.0
18/07:00am 14.7 14.2 9.5 71 2.7 ESE 2 6 1 3 1022.0 1021.6 0.0
18/06:30am 12.8 12.6 8.9 77 2.0 CALM 0 0 0 0 1021.7 1021.3 0.0
18/06:00am 12.4 12.1 8.7 78 1.9 CALM 0 0 0 0 1021.4 1021.0 0.0
18/05:30am 12.9 11.8 8.4 74 2.3 SSE 4 6 2 3 1021.0 1020.6 0.0
18/05:00am 13.8 12.0 8.0 68 2.9 ESE 7 9 4 5 1020.8 1020.4 0.0
18/04:30am 14.6 12.6 8.5 67 3.1 SE 9 11 5 6 1020.6 1020.2 0.0
18/04:00am 15.3 13.2 8.3 63 3.5 ESE 9 15 5 8 1020.6 1020.2 0.0
18/03:30am 15.7 13.2 8.4 62 3.7 ESE 11 15 6 8 1020.5 1020.1 0.0
18/03:00am 15.6 13.6 8.6 63 3.6 SE 9 11 5 6 1020.4 1020.0 0.0
18/02:30am 16.0 13.6 8.7 62 3.8 SE 11 15 6 8 1020.5 1020.1 0.0
18/02:00am 16.2 13.8 8.7 61 3.9 SE 11 13 6 7 1020.5 1020.1 0.0
18/01:30am 16.7 14.2 8.1 57 4.4 SE 11 19 6 10 1020.5 1020.1 0.0
18/01:00am 17.5 14.7 8.4 55 4.7 SE 13 19 7 10 1020.4 1020.0 0.0
18/12:30am 17.7 15.2 8.0 53 5.0 SE 11 17 6 9 1020.5 1020.1 0.0
18/12:00am 18.5 15.1 7.6 49 5.6 SE 15 22 8 12 1020.4 1020.0 0.0
 
Date/Time
EDT
Temp
°C
App
Temp
°C
Dew
Point
°C
Rel
Hum
%
Delta-T
°C
Wind Press
QNH
hPa
Press
MSL
hPa
Rain since
9am
mm
Dir  Spd
km/h
Gust
km/h
Spd
kts
Gust
kts
17/11:30pm 18.9 14.9 6.7 45 6.2 SE 17 22 9 12 1020.2 1019.8 0.0
17/11:00pm 19.4 14.9 6.2 42 6.6 SE 19 28 10 15 1019.8 1019.4 0.0
17/10:30pm 19.7 15.5 5.7 40 7.0 SE 17 20 9 11 1019.6 1019.2 0.0
17/10:00pm 19.8 15.6 5.5 39 7.1 SSE 17 28 9 15 1019.5 1019.1 0.0
17/09:30pm 19.9 16.6 6.6 42 6.7 SSE 13 19 7 10 1019.3 1018.9 0.0
17/09:00pm 21.2 17.0 5.9 37 7.7 SSE 17 24 9 13 1018.8 1018.4 0.0
17/08:30pm 22.1 17.9 5.5 34 8.4 SE 17 24 9 13 1018.5 1018.1 0.0
17/08:00pm 22.6 18.8 6.0 34 8.4 SE 15 20 8 11 1018.3 1017.9 0.0
17/07:30pm 23.9 19.8 4.3 28 9.8 SE 15 26 8 14 1018.1 1017.7 0.0
17/07:00pm 24.9 20.2 3.0 24 10.7 SE 17 22 9 12 1017.9 1017.5 0.0
17/06:30pm 25.4 20.6 2.8 23 11.1 SE 17 26 9 14 1017.6 1017.1 0.0
17/06:00pm 25.6 20.5 2.9 23 11.1 SE 19 24 10 13 1017.4 1016.9 0.0
17/05:30pm 26.2 21.6 3.5 23 11.3 SE 17 24 9 13 1017.4 1016.9 0.0
17/05:00pm 26.1 21.7 4.6 25 10.9 SSE 17 26 9 14 1017.3 1016.8 0.0
17/04:30pm 26.0 22.5 5.6 27 10.5 ESE 13 19 7 10 1017.3 1016.8 0.0
17/04:00pm 26.1 21.8 5.1 26 10.8 E 17 24 9 13 1017.5 1017.0 0.0
17/03:30pm 26.3 21.9 4.7 25 11.0 ESE 17 24 9 13 1017.7 1017.2 0.0
17/03:00pm 26.1 21.6 4.0 24 11.1 ESE 17 24 9 13 1017.9 1017.5 0.0
17/02:30pm 26.6 22.7 3.2 22 11.6 SE 13 24 7 13 1018.3 1017.9 0.0
17/02:00pm 25.0 21.3 4.2 26 10.4 E 13 20 7 11 1018.5 1018.1 0.0
17/01:30pm 24.6 20.9 4.4 27 10.1 SE 13 22 7 12 1018.7 1018.3 0.0
17/01:00pm 24.1 20.2 7.3 34 8.8 S 17 24 9 13 1018.9 1018.5 0.0
17/12:30pm 23.9 20.0 8.7 38 8.2 SSE 19 26 10 14 1019.1 1018.7 0.0
17/12:00pm 23.4 19.4 8.3 38 8.0 SSE 19 30 10 16 1019.3 1018.9 0.0
17/11:30am 22.9 18.8 7.8 38 8.0 SSE 19 28 10 15 1019.4 1019.0 0.0
17/11:00am 22.7 19.0 9.5 43 7.2 SE 19 28 10 15 1019.5 1019.1 0.0
17/10:30am 21.6 17.7 8.5 43 7.0 SE 19 28 10 15 1019.4 1019.0 0.0
17/10:00am 21.2 17.4 9.1 46 6.5 SE 19 28 10 15 1019.3 1018.9 0.0
17/09:30am 20.4 16.7 8.1 45 6.4 ESE 17 28 9 15 1019.3 1018.9 0.0
17/09:00am 19.7 15.1 8.1 47 6.0 SE 22 30 12 16 1019.2 1018.8 0.0
17/08:30am 18.8 14.1 7.9 49 5.6 SE 22 33 12 18 1019.0 1018.6 0.0
17/08:00am 18.2 14.1 7.9 51 5.3 SE 19 28 10 15 1018.7 1018.3 0.0
17/07:30am 17.4 15.0 8.8 57 4.5 ESE 11 17 6 9 1018.5 1018.1 0.0
17/07:00am 16.4 14.4 8.6 60 4.0 SE 9 13 5 7 1018.2 1017.8 0.0
17/06:30am 15.1 13.5 8.6 65 3.3 SE 7 11 4 6 1018.0 1017.6 0.0
17/06:00am 14.8 12.7 8.3 65 3.3 SE 9 11 5 6 1017.7 1017.2 0.0
17/05:30am 15.0 13.2 8.0 63 3.5 SE 7 11 4 6 1017.4 1016.9 0.0
17/05:00am 15.3 13.3 8.5 64 3.5 SE 9 15 5 8 1017.1 1016.6 0.0
17/04:30am 15.2 12.8 8.7 65 3.3 SSE 11 17 6 9 1017.0 1016.5 0.0
17/04:00am 14.4 12.4 8.6 68 2.9 S 9 11 5 6 1016.9 1016.4 0.0
17/03:30am 15.4 13.8 8.9 65 3.3 SSE 7 11 4 6 1016.8 1016.3 0.0
17/03:00am 15.9 14.0 9.1 64 3.5 SSE 9 13 5 7 1016.9 1016.4 0.0
17/02:30am 15.9 13.7 9.3 65 3.4 SE 11 17 6 9 1017.1 1016.6 0.0
17/02:00am 15.2 13.6 8.9 66 3.2 SSE 7 11 4 6 1017.0 1016.5 0.0
17/01:30am 15.5 13.1 8.5 63 3.6 SSE 11 15 6 8 1017.1 1016.6 0.0
17/01:00am 17.7 14.1 9.8 60 4.2 SE 19 24 10 13 1017.2 1016.7 0.0
17/12:30am 17.0 14.4 9.4 61 4.0 SE 13 17 7 9 1017.3 1016.8 0.0
17/12:00am 16.5 15.1 8.7 60 4.0 SE 6 9 3 5 1017.3 1016.8 0.0
 
Date/Time
EDT
Temp
°C
App
Temp
°C
Dew
Point
°C
Rel
Hum
%
Delta-T
°C
Wind Press
QNH
hPa
Press
MSL
hPa
Rain since
9am
mm
Dir  Spd
km/h
Gust
km/h
Spd
kts
Gust
kts
16/11:30pm 16.8 15.1 8.5 58 4.3 SE 7 13 4 7 1017.1 1016.6 0.0
16/11:00pm 17.1 15.7 9.5 61 4.0 SSE 7 9 4 5 1016.9 1016.4 0.0
16/10:30pm 18.0 17.9 9.6 58 4.5 CALM 0 0 0 0 1016.9 1016.4 0.0

Other Formats:

Comma delimited format used in spreadsheet applications
http://www.bom.gov.au/fwo/IDV60801/IDV60801.95896.axf

JavaScript Object Notation format (JSON) in row-major order
http://www.bom.gov.au/fwo/IDV60801/IDV60801.95896.json